Aurora, OR (97002)

12:34 PM PDT on September 04, 2015 (GMT -0700)
Mineral Springs View | | Change Station
CLOSE
Current Station
Personal Weather Station
Location: Hubbard, OR
Elevation: 177 ft
Nearby Weather Stations

Elev 177 ft 45.19 °N, 122.81 °W | Updated 4 minutes ago

Scattered Clouds
Scattered Clouds
63.7 °F
Feels Like 63.7 °F
N
3.2
Wind Variable Wind from West

Today
High -- | Low -- °F
--% Chance of Precip.
Yesterday
High -- | Low -- °F
Precip. -- in
6:36 AM 7:43 PM
Waning Gibbous, 57% visible
Pressure 30.00 in
Visibility 10.0 miles
Clouds Scattered Clouds 2200 ft
Dew Point 48 °F
Humidity 57%
Rainfall 0.00 in
Snow Depth Not available.
UV 6 out of 12
Pollen 3.10 out of 12
Air Quality Not available.
Flu Activity Not available.
METAR KUAO 041853Z 36007KT 10SM SCT022 16/08 A3000 RMK AO2 SLP157 T01560083
Pressure 30.00 in
Visibility 10.0 miles
Clouds Scattered Clouds 2200 ft
Dew Point 48 °F
Humidity 57%
Rainfall 0.00 in
Snow Depth Not available.
UV 6 out of 12
Pollen 3.10 out of 12
Air Quality Not available.
Flu Activity Not available.
METAR KUAO 041853Z 36007KT 10SM SCT022 16/08 A3000 RMK AO2 SLP157 T01560083

10-Day Weather Forecast

×

Almanac

Astronomy

Sep. 04, 2015 Rise Set
Actual Time
Civil Twilight
Nautical Twilight
Astronomical Twilight
Moon
Length of Visible Light
Length of Day
Tomorrow will be .
, % of the Moon is Illuminated

Today's Extremes

State Highs State Lows

Community

WunderPhotos

Upload Photos

1,852,273 photos uploaded!

WunderBlogs® & News

Nearby

Air Quality

  Air Quality AQ Index Pollutant
Not available.

Snow Depth

Station Depth Elevation

Earthquake Activity

City Distance Mag. Time & Date
Minimum magnitude displayed is 2.5.

Coastal Water Temperatures

Place Temperature

Stations

Nearby Weather Stations

Station Location Temp. Windchill Dew Point Humidity Wind Precip. Elev Updated Type